createdAt,value
2019-04-10T00:02:02.060Z,18.9
2019-04-10T00:07:21.100Z,18.8
2019-04-10T00:12:02.230Z,18.8
2019-04-10T00:17:02.869Z,18.8
2019-04-10T00:22:04.362Z,18.8
2019-04-10T00:27:02.248Z,18.8
2019-04-10T00:32:03.859Z,18.7
2019-04-10T00:37:02.009Z,18.7
2019-04-10T00:42:03.128Z,18.7
2019-04-10T00:47:02.578Z,18.7
2019-04-10T00:52:02.058Z,18.7
2019-04-10T00:57:01.971Z,18.6
2019-04-10T01:02:02.694Z,18.6
2019-04-10T01:07:02.358Z,18.6
2019-04-10T01:12:01.966Z,18.6
2019-04-10T01:17:02.291Z,18.6
2019-04-10T01:22:03.185Z,18.5
2019-04-10T01:27:02.011Z,18.5
2019-04-10T01:32:01.926Z,18.5
2019-04-10T01:37:02.841Z,18.4
2019-04-10T01:42:01.979Z,18.4
2019-04-10T01:47:02.715Z,18.4
2019-04-10T01:52:01.964Z,18.4
2019-04-10T01:57:02.157Z,18.3
2019-04-10T02:02:03.191Z,18.3
2019-04-10T02:07:02.347Z,18.3
2019-04-10T02:12:02.312Z,18.3
2019-04-10T02:17:01.933Z,18.3
2019-04-10T02:22:02.550Z,18.2
2019-04-10T02:27:02.564Z,18.2
2019-04-10T02:32:04.696Z,18.2
2019-04-10T02:37:02.851Z,18.2
2019-04-10T02:42:03.120Z,18.2
2019-04-10T02:47:05.007Z,18.1
2019-04-10T02:52:01.922Z,18.1
2019-04-10T02:57:06.014Z,18.1
2019-04-10T03:02:06.199Z,18
2019-04-10T03:07:04.583Z,18
2019-04-10T03:12:01.889Z,18
2019-04-10T03:17:02.182Z,18
2019-04-10T03:22:02.048Z,18
2019-04-10T03:27:01.886Z,17.9
2019-04-10T03:32:07.223Z,17.9
2019-04-10T03:37:04.522Z,17.9
2019-04-10T03:42:01.800Z,17.9
2019-04-10T03:47:03.050Z,17.9
2019-04-10T03:52:03.235Z,17.9
2019-04-10T03:57:02.673Z,17.8
2019-04-10T04:02:01.792Z,17.8
2019-04-10T04:07:01.805Z,17.8
2019-04-10T04:12:02.485Z,17.9
2019-04-10T04:17:02.064Z,17.9
2019-04-10T04:22:01.763Z,17.9
2019-04-10T04:27:02.939Z,17.9
2019-04-10T04:32:01.757Z,17.9
2019-04-10T04:37:02.608Z,17.9
2019-04-10T04:42:02.998Z,17.9
2019-04-10T04:47:01.741Z,18
2019-04-10T04:52:02.726Z,18
2019-04-10T04:57:01.774Z,18.1
2019-04-10T05:02:01.736Z,18.1
2019-04-10T05:07:01.744Z,18.1
2019-04-10T05:12:03.028Z,18.2
2019-04-10T05:17:01.914Z,18.3
2019-04-10T05:22:01.822Z,18.4
2019-04-10T05:27:01.754Z,18.4
2019-04-10T05:32:01.701Z,18.4
2019-04-10T05:37:01.745Z,18.5
2019-04-10T05:42:02.956Z,18.5
2019-04-10T05:47:01.725Z,18.5
2019-04-10T05:52:02.150Z,18.5
2019-04-10T05:57:01.712Z,18.5
2019-04-10T06:08:56.441Z,18.6
2019-04-10T06:13:57.079Z,18.7
2019-04-10T06:18:57.704Z,18.7
2019-04-10T06:23:58.451Z,18.7
2019-04-10T06:28:57.024Z,18.7
2019-04-10T06:33:56.464Z,18.8
2019-04-10T06:38:56.458Z,18.9
2019-04-10T06:43:57.371Z,19
2019-04-10T06:48:56.463Z,19.1
2019-04-10T06:54:12.985Z,19
2019-04-10T06:58:56.529Z,19.1
2019-04-10T07:11:13.459Z,19.2
2019-04-10T07:15:58.666Z,19.3
2019-04-10T07:21:02.139Z,19.3
2019-04-10T07:25:56.522Z,19.4
2019-04-10T07:31:10.383Z,19.5
2019-04-10T07:35:56.821Z,19.5
2019-04-10T07:40:56.985Z,19.5
2019-04-10T07:45:57.547Z,19.6
2019-04-10T07:50:56.042Z,19.7
2019-04-10T07:56:19.045Z,19.7
2019-04-10T08:00:56.881Z,19.7
2019-04-10T08:05:55.981Z,19.7
2019-04-10T08:10:55.980Z,19.8
2019-04-10T08:15:56.479Z,19.8
2019-04-10T08:20:57.418Z,19.9
2019-04-10T08:25:56.085Z,19.9
2019-04-10T08:30:59.015Z,20
2019-04-10T08:35:57.014Z,20
2019-04-10T08:40:56.763Z,20.1
2019-04-10T08:45:56.966Z,20.1
2019-04-10T08:50:56.952Z,20.1
2019-04-10T08:55:56.954Z,20.2
2019-04-10T09:00:56.769Z,20.3
2019-04-10T09:05:55.960Z,20.3
2019-04-10T09:10:55.961Z,20.4
2019-04-10T09:15:56.351Z,20.6
2019-04-10T09:20:56.965Z,20.6
2019-04-10T09:25:55.920Z,20.7
2019-04-10T09:30:55.930Z,20.8
2019-04-10T09:35:57.225Z,20.9
2019-04-10T09:40:55.919Z,21
2019-04-10T09:45:55.935Z,21.1
2019-04-10T09:50:56.241Z,21.3
2019-04-10T09:55:56.921Z,21.4
2019-04-10T10:00:56.675Z,21.5
2019-04-10T10:05:55.891Z,21.7
2019-04-10T10:10:55.880Z,21.8
2019-04-10T10:15:56.927Z,21.9
2019-04-10T10:20:56.537Z,22
2019-04-10T10:25:55.852Z,22.2
2019-04-10T10:30:55.894Z,22.4
2019-04-10T10:35:55.893Z,22.5
2019-04-10T10:40:57.163Z,22.7
2019-04-10T10:45:55.844Z,22.9
2019-04-10T10:50:56.363Z,23.1
2019-04-10T10:55:56.196Z,23.4
2019-04-10T11:00:55.849Z,23.6
2019-04-10T11:05:55.830Z,23.9
2019-04-10T11:11:01.088Z,24.2
2019-04-10T11:15:56.548Z,24.6
2019-04-10T11:23:01.824Z,24.8
2019-04-10T11:25:57.829Z,25.1
2019-04-10T11:30:56.276Z,25.4
2019-04-10T11:35:56.208Z,25.6
2019-04-10T11:41:00.338Z,25.9
2019-04-10T11:48:02.691Z,26.2
2019-04-10T11:51:03.271Z,26.9
2019-04-10T11:56:05.763Z,27.6
2019-04-10T12:15:56.860Z,29.9
2019-04-10T12:20:55.779Z,30.4
2019-04-10T12:25:55.824Z,30.7
2019-04-10T12:30:55.791Z,30.7
2019-04-10T12:35:56.320Z,30.6
2019-04-10T12:40:55.796Z,30.5
2019-04-10T12:45:56.992Z,30.6
2019-04-10T12:50:55.730Z,30.6
2019-04-10T12:55:55.776Z,30.8
2019-04-10T13:00:56.362Z,30.8
2019-04-10T13:05:55.788Z,31.1
2019-04-10T13:10:56.200Z,31.4
2019-04-10T13:15:56.096Z,31.7
2019-04-10T13:20:55.969Z,32
2019-04-10T13:26:09.576Z,32.2
2019-04-10T13:30:59.669Z,31.5
2019-04-10T13:35:55.716Z,30.6
2019-04-10T13:40:56.509Z,29.7
2019-04-10T13:45:56.396Z,28.9
2019-04-10T13:50:57.229Z,28.3
2019-04-10T13:56:01.100Z,27.9
2019-04-10T14:00:55.722Z,27.6
2019-04-10T14:05:57.208Z,27.3
2019-04-10T14:10:55.727Z,26.9
2019-04-10T14:15:56.207Z,26.6
2019-04-10T14:20:55.678Z,26.4
2019-04-10T14:25:56.140Z,26.1
2019-04-10T14:30:55.846Z,25.8
2019-04-10T14:35:55.904Z,25.6
2019-04-10T14:40:55.711Z,25.3
2019-04-10T14:45:55.675Z,25.2
2019-04-10T14:50:55.652Z,25
2019-04-10T14:55:55.747Z,24.8
2019-04-10T15:00:55.650Z,24.6
2019-04-10T15:06:02.556Z,24.5
2019-04-10T15:10:55.651Z,24.4
2019-04-10T15:15:56.863Z,24.1
2019-04-10T15:20:56.745Z,23.9
2019-04-10T15:25:55.700Z,23.7
2019-04-10T15:30:55.626Z,23.6
2019-04-10T15:35:55.630Z,23.5
2019-04-10T15:40:56.937Z,23.5
2019-04-10T15:45:56.967Z,23.5
2019-04-10T15:50:56.054Z,23.5
2019-04-10T15:55:56.088Z,23.4
2019-04-10T16:00:55.598Z,23.4
2019-04-10T16:05:55.954Z,23.3
2019-04-10T16:10:55.609Z,23.3
2019-04-10T16:19:54.562Z,23.2
2019-04-10T16:24:55.620Z,23
2019-04-10T16:29:54.370Z,22.8
2019-04-10T16:34:54.790Z,22.7
2019-04-10T16:40:10.121Z,22.5
2019-04-10T16:44:54.393Z,22.3
2019-04-10T16:49:55.406Z,22.2
2019-04-10T16:54:55.674Z,22
2019-04-10T16:59:57.510Z,21.8
2019-04-10T17:04:54.338Z,21.8
2019-04-10T17:09:54.359Z,21.7
2019-04-10T17:14:55.660Z,21.5
2019-04-10T17:20:00.682Z,21.5
2019-04-10T17:24:54.342Z,21.4
2019-04-10T17:29:58.307Z,21.3
2019-04-10T17:34:55.052Z,21.3
2019-04-10T17:39:55.860Z,21.3
2019-04-10T17:44:54.351Z,21.2
2019-04-10T17:49:54.263Z,21
2019-04-10T17:54:55.611Z,21
2019-04-10T17:59:54.620Z,20.9
2019-04-10T18:04:54.272Z,20.8
2019-04-10T18:09:54.281Z,20.8
2019-04-10T18:14:55.708Z,20.7
2019-04-10T18:19:54.763Z,20.7
2019-04-10T18:24:54.247Z,20.6
2019-04-10T18:29:55.357Z,20.6
2019-04-10T18:35:02.928Z,20.5
2019-04-10T18:40:01.697Z,20.5
2019-04-10T18:45:02.053Z,20.5
2019-04-10T18:50:04.499Z,20.4
2019-04-10T18:55:01.728Z,20.4
2019-04-10T19:00:02.153Z,20.4
2019-04-10T19:05:01.753Z,20.3
2019-04-10T19:10:02.390Z,20.3
2019-04-10T19:15:01.693Z,20.3
2019-04-10T19:20:02.411Z,20.2
2019-04-10T19:25:03.309Z,20.2
2019-04-10T19:30:02.939Z,20.2
2019-04-10T19:35:02.878Z,20.2
2019-04-10T19:40:03.056Z,20.2
2019-04-10T19:45:02.024Z,20.2
2019-04-10T19:50:01.665Z,20.2
2019-04-10T19:55:01.594Z,20.2
2019-04-10T20:00:01.645Z,20.2
2019-04-10T20:13:28.384Z,20.1
2019-04-10T20:18:28.687Z,20.1
2019-04-10T20:23:28.361Z,20
2019-04-10T20:28:28.975Z,20
2019-04-10T20:33:28.377Z,19.9
2019-04-10T20:38:28.331Z,19.9
2019-04-10T20:43:33.814Z,19.8
2019-04-10T20:48:28.818Z,19.8
2019-04-10T20:53:28.373Z,19.8
2019-04-10T20:58:29.577Z,19.7
2019-04-10T21:03:28.528Z,19.7
2019-04-10T21:08:28.308Z,19.6
2019-04-10T21:13:28.322Z,19.6
2019-04-10T21:18:29.363Z,19.4
2019-04-10T21:23:29.445Z,19.4
2019-04-10T21:28:28.429Z,19.3
2019-04-10T21:33:28.281Z,19.2
2019-04-10T21:38:28.298Z,19.1
2019-04-10T21:43:28.395Z,19.1
2019-04-10T21:48:28.274Z,19
2019-04-10T21:53:35.627Z,18.9
2019-04-10T21:58:28.430Z,18.8
2019-04-10T22:03:29.661Z,18.8
2019-04-10T22:08:29.571Z,18.8
2019-04-10T22:13:28.267Z,18.7
2019-04-10T22:18:28.252Z,18.7
2019-04-10T22:23:28.831Z,18.6
2019-04-10T22:28:28.854Z,18.5
2019-04-10T22:33:28.290Z,18.5
2019-04-10T22:38:29.511Z,18.6
2019-04-10T22:43:28.257Z,18.6
2019-04-10T22:48:28.852Z,18.6
2019-04-10T22:53:29.078Z,18.6
2019-04-10T22:58:29.011Z,18.6
2019-04-10T23:03:28.190Z,18.6
2019-04-10T23:08:28.437Z,18.6
2019-04-10T23:13:28.152Z,18.6
2019-04-10T23:18:28.220Z,18.6
2019-04-10T23:23:28.173Z,18.6
2019-04-10T23:28:28.365Z,18.5
2019-04-10T23:33:28.325Z,18.5
2019-04-10T23:38:28.176Z,18.5
2019-04-10T23:43:29.566Z,18.5
2019-04-10T23:48:28.883Z,18.5
2019-04-10T23:53:28.965Z,18.4
2019-04-10T23:58:28.150Z,18.5
